GAC903L / OE-FZA 7700 Squawk Report (17th of March, 2019)

Time Lat Lon Altitude Heading Speed Vertical Rate
2019-03-17 15:54:20 GMT 43.443684 5.212725 0 59 0
2019-03-17 15:54:10 GMT 43.443687 5.212751 0 59 0
2019-03-17 15:54:06 GMT 43.443695 5.212757 0 59 0
2019-03-17 15:53:45 GMT 43.443687 5.212751 0 59 0
2019-03-17 15:53:35 GMT 43.443699 5.212751 0 59 0
We lost coverage of the aircraft here for a total of 46 minutes
2019-03-17 15:07:35 GMT 43.443687 5.212767 0 59 0 0
2019-03-17 15:07:28 GMT 43.443684 5.212757 0 59 0 0
2019-03-17 15:07:07 GMT 43.443687 5.212767 0 59 1 0
2019-03-17 15:06:56 GMT 43.443615 5.212582 0 59 4 0
2019-03-17 15:06:45 GMT 43.443523 5.212358 0 22 4 0
2019-03-17 15:06:35 GMT 43.443256 5.212457 0 329 11 0
2019-03-17 15:06:24 GMT 43.442734 5.212718 0 343 11 0
2019-03-17 15:06:14 GMT 43.442333 5.212518 0 56 13 0
2019-03-17 15:06:01 GMT 43.441967 5.211607 0 61 10 0
2019-03-17 15:05:53 GMT 43.441830 5.211256 0 56 7 0
2019-03-17 15:05:43 GMT 43.441673 5.211018 0 36 4 0
2019-03-17 15:05:32 GMT 43.441593 5.210920 0 33 2 0
2019-03-17 15:05:21 GMT 43.441521 5.210857 0 25 1 0
2019-03-17 15:05:12 GMT 43.441444 5.210789 0 14 6 0
2019-03-17 15:05:00 GMT 43.441093 5.210773 0 345 8 0
2019-03-17 15:04:51 GMT 43.440731 5.210905 0 343 10 0
2019-03-17 15:04:40 GMT 43.440079 5.211160 0 343 17 0
2019-03-17 15:04:30 GMT 43.439362 5.211476 0 329 16 0
2019-03-17 15:04:19 GMT 43.438545 5.212440 0 309 39 0
2019-03-17 15:04:08 GMT 43.436577 5.215236 0 309 76 0
2019-03-17 15:03:59 GMT 43.433762 5.219208 25 314 103 -128
2019-03-17 15:03:48 GMT 43.430164 5.224261 100 314 109 -768
2019-03-17 15:03:38 GMT 43.426487 5.229492 250 315 107 -1024
2019-03-17 15:03:27 GMT 43.422901 5.234593 425 314 105 -704
2019-03-17 15:03:17 GMT 43.419434 5.239648 550 314 106 -768
2019-03-17 15:03:07 GMT 43.415909 5.244630 675 315 107 -768
2019-03-17 15:02:56 GMT 43.412197 5.249895 800 314 108 -768
2019-03-17 15:02:45 GMT 43.408424 5.255258 925 315 113 -832
2019-03-17 15:02:35 GMT 43.404610 5.260620 1,075 315 117 -832
2019-03-17 15:02:24 GMT 43.400230 5.266833 1,250 314 119 -768
2019-03-17 15:02:14 GMT 43.396454 5.272224 1,375 314 123 -896
2019-03-17 15:02:02 GMT 43.391556 5.279250 1,575 314 128 -960
2019-03-17 15:01:53 GMT 43.388123 5.284232 1,700 314 130 -960
2019-03-17 15:01:50 GMT 43.386887 5.285957 1,750 314 132 -1024
2019-03-17 15:01:43 GMT 43.383614 5.290702 1,900 314 133 -960
2019-03-17 15:01:32 GMT 43.379143 5.297045 2,125 314 130 -768
2019-03-17 15:01:22 GMT 43.374985 5.303139 2,200 315 125 -128
2019-03-17 15:01:09 GMT 43.369492 5.310548 2,200 317 127 0
2019-03-17 15:00:59 GMT 43.364731 5.315978 2,200 323 129 0
2019-03-17 15:00:50 GMT 43.360245 5.319606 2,200 357 145 -64
2019-03-17 15:00:40 GMT 43.353745 5.321790 2,200 357 145 -64
2019-03-17 15:00:29 GMT 43.346466 5.321598 2,250 1 149 -320
2019-03-17 15:00:19 GMT 43.339340 5.321307 2,300 1 151 -448
2019-03-17 15:00:08 GMT 43.331985 5.321045 2,375 1 155 -512
2019-03-17 14:59:58 GMT 43.324306 5.320783 2,475 2 165 -448
2019-03-17 14:59:47 GMT 43.316017 5.320391 2,525 1 166 -512
2019-03-17 14:59:37 GMT 43.308060 5.320066 2,600 1 167 -512
2019-03-17 14:59:26 GMT 43.299820 5.319682 2,700 2 168 -512
2019-03-17 14:59:16 GMT 43.291626 5.319299 2,800 2 167 -960
2019-03-17 14:59:05 GMT 43.283478 5.318788 2,975 2 160 -576
2019-03-17 14:58:55 GMT 43.275936 5.318429 3,000 2 156 0
2019-03-17 14:58:44 GMT 43.268627 5.318037 3,000 2 154 0
2019-03-17 14:58:34 GMT 43.261276 5.316808 3,000 17 156 -64
2019-03-17 14:58:23 GMT 43.254868 5.310484 3,050 55 168 -960
2019-03-17 14:58:13 GMT 43.252522 5.299334 3,250 91 180 -1024
2019-03-17 14:58:02 GMT 43.253403 5.287554 3,425 96 183 -1024
2019-03-17 14:57:51 GMT 43.254524 5.274876 3,600 97 186 -1024
2019-03-17 14:57:41 GMT 43.255692 5.262707 3,775 97 189 -1024
2019-03-17 14:57:30 GMT 43.257130 5.249307 3,950 98 194 -960
2019-03-17 14:57:20 GMT 43.258438 5.237604 4,125 100 198 -960
2019-03-17 14:57:10 GMT 43.261597 5.224702 4,300 123 208 -1024
2019-03-17 14:57:02 GMT 43.266998 5.216909 4,425 142 212 -1024
2019-03-17 14:56:59 GMT 43.269047 5.214778 4,475 142 213 -1024
2019-03-17 14:56:54 GMT 43.272720 5.210905 4,550 142 213 -960
2019-03-17 14:56:49 GMT 43.276962 5.206473 4,650 142 213 -960
2019-03-17 14:56:44 GMT 43.281967 5.201196 4,750 142 213 -960
2019-03-17 14:56:38 GMT 43.285526 5.197449 4,825 143 213 -960
2019-03-17 14:56:33 GMT 43.290024 5.193276 4,900 150 214 -896
2019-03-17 14:56:28 GMT 43.294048 5.190648 4,975 160 213 -512
2019-03-17 14:56:23 GMT 43.299213 5.189013 5,000 175 210 0
2019-03-17 14:56:17 GMT 43.304287 5.188751 5,000 179 211 0
2019-03-17 14:56:10 GMT 43.311504 5.188555 5,000 178 212 0
2019-03-17 14:56:07 GMT 43.314743 5.188485 5,000 178 211 0
2019-03-17 14:56:03 GMT 43.318634 5.188357 5,000 178 211 0
2019-03-17 14:55:56 GMT 43.325375 5.188228 5,000 179 211 0
2019-03-17 14:55:49 GMT 43.331955 5.188102 5,000 179 212 64
2019-03-17 14:55:45 GMT 43.335571 5.188032 5,000 179 212 0
2019-03-17 14:55:40 GMT 43.341064 5.187966 5,000 179 213 -64
2019-03-17 14:55:35 GMT 43.346001 5.187901 5,025 179 213 -448
2019-03-17 14:55:32 GMT 43.348709 5.187910 5,025 179 214 -832
2019-03-17 14:55:24 GMT 43.356567 5.187901 5,175 180 217 -1088
2019-03-17 14:55:20 GMT 43.360794 5.187910 5,250 181 218 -1088
2019-03-17 14:55:12 GMT 43.369137 5.187901 5,400 181 220 -1088
2019-03-17 14:55:02 GMT 43.382355 5.187910 5,650 179 223 -1088
2019-03-17 14:54:52 GMT 43.389992 5.187770 5,775 178 225 -1088
2019-03-17 14:54:48 GMT 43.393250 5.187705 5,825 178 226 -1088
2019-03-17 14:54:42 GMT 43.404144 5.187313 6,050 178 228 -1088
2019-03-17 14:54:38 GMT 43.404144 5.187313 6,025 177 228 -1088
2019-03-17 14:54:31 GMT 43.411449 5.186920 6,150 177 228 -1088
2019-03-17 14:54:28 GMT 43.414948 5.186760 6,225 178 228 -1088
2019-03-17 14:54:21 GMT 43.422272 5.186697 6,350 182 226 -1088
2019-03-17 14:54:17 GMT 43.426582 5.186855 6,425 182 226 -1088
2019-03-17 14:54:10 GMT 43.433285 5.187182 6,525 183 226 -1088
2019-03-17 14:54:07 GMT 43.437149 5.187335 6,600 183 226 -1088
2019-03-17 14:54:00 GMT 43.443947 5.187705 6,725 183 226 -1152
2019-03-17 14:53:56 GMT 43.455551 5.188421 7,125 183 226 -1088
2019-03-17 14:53:49 GMT 43.455551 5.188421 6,925 183 226 -1088
2019-03-17 14:53:45 GMT 43.460052 5.188751 7,125 183 226 -1088
2019-03-17 14:53:39 GMT 43.465870 5.189144 7,100 183 226 -1088
2019-03-17 14:53:33 GMT 43.476654 5.189954 7,300 184 226 -1088
2019-03-17 14:53:29 GMT 43.476654 5.189954 7,300 184 226 -1088
2019-03-17 14:53:22 GMT 43.483887 5.190582 7,425 184 226 -1088
2019-03-17 14:53:18 GMT 43.488075 5.190975 7,500 185 226 -1088
2019-03-17 14:53:14 GMT 43.491943 5.191423 7,575 185 226 -1088
2019-03-17 14:53:07 GMT 43.499588 5.192190 7,700 185 227 -1088
2019-03-17 14:53:02 GMT 43.504349 5.192765 7,800 185 227 -1088
2019-03-17 14:52:59 GMT 43.507690 5.193148 7,850 185 228 -1088
2019-03-17 14:52:56 GMT 43.511627 5.193595 7,925 185 228 -1024
2019-03-17 14:52:52 GMT 43.515289 5.193978 7,975 185 228 -512
2019-03-17 14:52:49 GMT 43.518677 5.194361 8,000 185 227 -64
2019-03-17 14:52:45 GMT 43.522758 5.194768 8,000 185 227 0
2019-03-17 14:52:42 GMT 43.526112 5.195095 8,000 185 227 0
2019-03-17 14:52:38 GMT 43.529785 5.195421 8,000 185 228 0
2019-03-17 14:52:34 GMT 43.534012 5.195894 8,000 185 228 0
2019-03-17 14:52:31 GMT 43.537514 5.196272 8,000 185 228 0
2019-03-17 14:52:28 GMT 43.540787 5.196597 8,000 185 229 64
2019-03-17 14:52:24 GMT 43.544918 5.196991 8,000 185 229 0
2019-03-17 14:52:21 GMT 43.551292 5.197645 8,000 185 230 0
2019-03-17 14:52:18 GMT 43.551292 5.197645 8,000 185 231 0
2019-03-17 14:52:14 GMT 43.555893 5.198130 8,000 185 232 0
2019-03-17 14:52:10 GMT 43.562885 5.198887 8,000 185 233 0
2019-03-17 14:52:03 GMT 43.567635 5.199411 8,000 185 234 0
2019-03-17 14:51:57 GMT 43.574383 5.200065 8,000 185 236 0
2019-03-17 14:51:51 GMT 43.585510 5.201196 8,000 185 239 0
2019-03-17 14:51:47 GMT 43.585510 5.201196 8,000 185 239 0
2019-03-17 14:51:42 GMT 43.590408 5.201707 8,000 185 241 0
2019-03-17 14:51:36 GMT 43.597427 5.202419 8,000 185 243 0
2019-03-17 14:51:31 GMT 43.602264 5.202921 8,000 185 245 0
2019-03-17 14:51:27 GMT 43.607716 5.203530 8,000 185 246 0
2019-03-17 14:51:21 GMT 43.614578 5.204262 8,000 185 249 0
2019-03-17 14:51:17 GMT 43.619308 5.204773 8,000 185 251 -192
2019-03-17 14:51:09 GMT 43.628311 5.205731 8,050 185 253 -896
2019-03-17 14:51:06 GMT 43.631226 5.206081 8,100 185 253 -1024
2019-03-17 14:51:00 GMT 43.639420 5.206866 8,225 185 252 -960
2019-03-17 14:50:55 GMT 43.644306 5.207389 8,300 185 251 -1024
2019-03-17 14:50:49 GMT 43.651291 5.208043 8,375 184 251 -960
2019-03-17 14:50:45 GMT 43.655945 5.208435 8,450 184 250 -960
2019-03-17 14:50:38 GMT 43.663765 5.209089 8,550 184 249 -1024
2019-03-17 14:50:34 GMT 43.668137 5.209372 8,625 183 249 -960
2019-03-17 14:50:28 GMT 43.675873 5.209947 8,750 183 248 -960
2019-03-17 14:50:25 GMT 43.679077 5.210138 8,850 183 247 -960
2019-03-17 14:50:15 GMT 43.690674 5.210658 8,950 182 245 -960
2019-03-17 14:50:07 GMT 43.699795 5.210920 9,100 181 242 -960
2019-03-17 14:50:03 GMT 43.703613 5.211051 9,125 181 242 -960
2019-03-17 14:49:54 GMT 43.713501 5.211288 9,300 181 237 -960
2019-03-17 14:49:49 GMT 43.719406 5.211416 9,375 181 234 -960
2019-03-17 14:49:46 GMT 43.722656 5.211480 9,475 181 234 0
2019-03-17 14:49:42 GMT 43.728146 5.211574 9,475 181 233 -960
2019-03-17 14:49:34 GMT 43.735291 5.211735 9,625 181 228 -1024
2019-03-17 14:49:27 GMT 43.743393 5.211863 9,750 181 225 -960
2019-03-17 14:49:23 GMT 43.746918 5.211927 9,800 181 222 -960
2019-03-17 14:49:18 GMT 43.753658 5.212032 9,900 181 217 -960
2019-03-17 14:49:12 GMT 43.757767 5.212118 9,950 181 214 -320
2019-03-17 14:49:07 GMT 43.763306 5.212118 10,000 181 213 0
2019-03-17 14:49:01 GMT 43.768505 5.212163 10,000 181 213 0
2019-03-17 14:48:51 GMT 43.778870 5.212310 10,000 181 213 0
2019-03-17 14:48:45 GMT 43.785358 5.212359 10,000 181 213 0
2019-03-17 14:48:40 GMT 43.789261 5.212438 10,000 181 213 0
2019-03-17 14:48:36 GMT 43.794113 5.212502 10,000 181 213 0
2019-03-17 14:48:29 GMT 43.800110 5.212629 10,000 181 213 0
2019-03-17 14:48:23 GMT 43.807983 5.212757 10,000 181 213 0
2019-03-17 14:48:20 GMT 43.809586 5.212757 10,000 181 214 0
2019-03-17 14:48:15 GMT 43.814732 5.212817 10,000 181 214 0
2019-03-17 14:48:09 GMT 43.820179 5.212947 10,000 181 214 0
2019-03-17 14:48:05 GMT 43.824741 5.213013 10,000 181 215 0
2019-03-17 14:47:58 GMT 43.830688 5.213077 10,000 181 215 0
2019-03-17 14:47:53 GMT 43.835869 5.213078 10,000 181 215 0
2019-03-17 14:47:48 GMT 43.841034 5.213140 10,000 181 215 0
2019-03-17 14:47:43 GMT 43.846436 5.213209 10,000 181 215 0
2019-03-17 14:47:35 GMT 43.854908 5.213340 10,000 181 215 0
2019-03-17 14:47:27 GMT 43.862045 5.213396 10,000 181 215 0
2019-03-17 14:47:24 GMT 43.865753 5.213405 10,000 181 215 0
2019-03-17 14:47:14 GMT 43.875576 5.213536 10,000 181 215 0
2019-03-17 14:47:04 GMT 43.885727 5.213667 10,000 181 215 0
2019-03-17 14:46:53 GMT 43.896198 5.213797 10,000 181 215 0
2019-03-17 14:46:43 GMT 43.906395 5.213928 10,000 181 216 0
2019-03-17 14:46:37 GMT 43.912399 5.213971 10,000 181 216 0
2019-03-17 14:46:33 GMT 43.916077 5.213994 10,000 181 216 0
2019-03-17 14:46:28 GMT 43.920685 5.214059 10,000 181 217 0
2019-03-17 14:46:22 GMT 43.927296 5.214124 10,000 181 217 0
2019-03-17 14:46:16 GMT 43.933350 5.214255 10,000 181 217 0
2019-03-17 14:46:11 GMT 43.938446 5.214418 10,000 182 217 0
2019-03-17 14:46:02 GMT 43.947189 5.214673 10,000 182 217 0
2019-03-17 14:45:57 GMT 43.952530 5.214844 10,000 182 217 0
2019-03-17 14:45:51 GMT 43.958160 5.215040 10,000 182 218 0
2019-03-17 14:45:48 GMT 43.960785 5.215121 10,000 182 218 0
2019-03-17 14:45:41 GMT 43.978828 5.215759 10,000 182 218 0
2019-03-17 14:45:30 GMT 43.978828 5.215759 10,000 182 218 0
2019-03-17 14:45:20 GMT 43.989723 5.216086 10,000 182 218 0
2019-03-17 14:45:16 GMT 43.993774 5.216217 10,000 182 218 0
2019-03-17 14:45:10 GMT 43.999825 5.216348 10,000 182 219 0
2019-03-17 14:45:07 GMT 44.003269 5.216479 10,000 182 219 0
2019-03-17 14:44:57 GMT 44.014618 5.216845 10,000 182 219 0
2019-03-17 14:44:46 GMT 44.023937 5.217329 10,000 183 219 0
2019-03-17 14:44:37 GMT 44.032562 5.217803 10,000 183 219 0
2019-03-17 14:44:33 GMT 44.036926 5.218048 10,000 183 220 0
2019-03-17 14:44:25 GMT 44.045380 5.218634 10,000 183 220 0
2019-03-17 14:44:16 GMT 44.055313 5.219208 10,000 183 220 0
2019-03-17 14:44:05 GMT 44.065338 5.219847 10,000 183 220 0
2019-03-17 14:43:55 GMT 44.075611 5.220533 10,000 183 221 0
2019-03-17 14:43:44 GMT 44.086506 5.221122 10,000 183 222 0
2019-03-17 14:43:34 GMT 44.097584 5.221776 10,000 183 223 0
2019-03-17 14:43:24 GMT 44.107773 5.222338 10,000 183 225 0
2019-03-17 14:43:13 GMT 44.118813 5.223018 10,000 183 227 0
2019-03-17 14:43:02 GMT 44.130341 5.223807 10,000 183 229 0
2019-03-17 14:42:52 GMT 44.140877 5.224588 10,000 183 231 0
2019-03-17 14:42:42 GMT 44.152470 5.225372 10,000 183 234 0
2019-03-17 14:42:31 GMT 44.163712 5.226107 10,000 183 237 0
2019-03-17 14:42:21 GMT 44.175514 5.226942 10,000 184 240 0
2019-03-17 14:42:10 GMT 44.187618 5.227923 10,000 184 245 -128
2019-03-17 14:42:02 GMT 44.197083 5.228642 10,125 184 247 -1024
2019-03-17 14:41:59 GMT 44.199371 5.228838 10,075 184 247 -1024
2019-03-17 14:41:48 GMT 44.212372 5.229754 10,275 183 246 -960
2019-03-17 14:41:39 GMT 44.223083 5.230342 10,425 183 245 -1024
2019-03-17 14:41:31 GMT 44.231873 5.230735 10,550 182 243 -1024
2019-03-17 14:41:28 GMT 44.235031 5.230865 10,600 182 243 -1024
2019-03-17 14:41:21 GMT 44.243198 5.231100 10,725 181 241 -960
2019-03-17 14:41:17 GMT 44.247025 5.231192 10,775 181 241 -960
2019-03-17 14:41:10 GMT 44.259109 5.231389 10,950 181 239 -960
2019-03-17 14:40:58 GMT 44.268219 5.231454 11,100 181 242 -1024
2019-03-17 14:40:55 GMT 44.272064 5.231519 11,150 181 243 -960
2019-03-17 14:40:48 GMT 44.281002 5.231569 11,275 181 249 -960
2019-03-17 14:40:44 GMT 44.284912 5.231636 11,350 181 248 -1024
2019-03-17 14:40:40 GMT 44.288956 5.231650 11,400 181 250 -1024
2019-03-17 14:40:37 GMT 44.292313 5.231703 11,450 181 252 -1024
2019-03-17 14:40:33 GMT 44.296967 5.231703 11,525 181 253 -1024
2019-03-17 14:40:27 GMT 44.303925 5.231846 11,625 181 256 -960
2019-03-17 14:40:22 GMT 44.310059 5.231977 11,800 181 256 -1024
2019-03-17 14:40:19 GMT 44.313858 5.232043 11,750 181 256 -1024
2019-03-17 14:40:12 GMT 44.321781 5.232172 11,875 181 255 -1024
2019-03-17 14:40:01 GMT 44.334274 5.232435 12,050 181 255 -960
2019-03-17 14:39:50 GMT 44.347412 5.232697 12,225 181 256 -1024
2019-03-17 14:39:45 GMT 44.354416 5.232827 12,350 181 257 -960
2019-03-17 14:39:40 GMT 44.359909 5.232827 12,400 181 257 -960
2019-03-17 14:39:34 GMT 44.367496 5.232909 12,500 181 258 -1024
2019-03-17 14:39:29 GMT 44.372616 5.232909 12,600 181 258 -960
2019-03-17 14:39:23 GMT 44.380016 5.232976 12,700 181 258 -1024
2019-03-17 14:39:17 GMT 44.387421 5.233024 12,800 181 257 -960
2019-03-17 14:39:11 GMT 44.394775 5.233043 12,900 180 257 -1024
2019-03-17 14:39:07 GMT 44.398956 5.233024 12,950 180 257 -960
2019-03-17 14:39:02 GMT 44.404781 5.232976 13,025 179 257 -960
2019-03-17 14:38:57 GMT 44.410976 5.232976 13,125 179 257 -1024
2019-03-17 14:38:52 GMT 44.417259 5.232976 13,225 179 256 -960
2019-03-17 14:38:47 GMT 44.423309 5.232893 13,300 179 256 -960
2019-03-17 14:38:42 GMT 44.429455 5.232842 13,375 179 255 -1024
2019-03-17 14:38:35 GMT 44.436996 5.232842 13,500 179 254 -1024
2019-03-17 14:38:31 GMT 44.441700 5.232775 13,550 179 254 -960
2019-03-17 14:38:25 GMT 44.449287 5.232775 13,650 180 252 -960
2019-03-17 14:38:21 GMT 44.453850 5.232775 13,725 180 251 -960
2019-03-17 14:38:14 GMT 44.461166 5.232762 13,825 180 250 -960
2019-03-17 14:38:10 GMT 44.466000 5.232775 13,900 180 249 -1024
2019-03-17 14:38:05 GMT 44.472515 5.232775 14,025 180 247 -960
2019-03-17 14:38:01 GMT 44.481640 5.232775 14,125 180 245 -960
2019-03-17 14:37:54 GMT 44.484924 5.232762 14,175 180 244 -960
2019-03-17 14:37:47 GMT 44.493137 5.232775 14,300 181 241 -960
2019-03-17 14:37:42 GMT 44.497925 5.232827 14,375 181 240 -960
2019-03-17 14:37:36 GMT 44.505020 5.232827 14,500 181 238 -960
2019-03-17 14:37:32 GMT 44.508774 5.232827 14,525 181 239 -1024
2019-03-17 14:37:26 GMT 44.516602 5.232909 14,650 181 237 -960
2019-03-17 14:37:22 GMT 44.520218 5.232893 14,700 181 237 -960
2019-03-17 14:37:15 GMT 44.528194 5.232909 14,825 180 233 -896
2019-03-17 14:37:10 GMT 44.532623 5.232958 14,900 180 234 -960
2019-03-17 14:37:05 GMT 44.539764 5.232958 15,000 179 233 -192
2019-03-17 14:37:01 GMT 44.543015 5.232893 15,000 179 233 0
2019-03-17 14:36:53 GMT 44.553379 5.232842 15,000 179 239 0
2019-03-17 14:36:50 GMT 44.554367 5.232827 15,000 179 240 0
2019-03-17 14:36:44 GMT 44.562969 5.232708 15,000 179 244 -128
2019-03-17 14:36:40 GMT 44.566364 5.232708 15,000 179 246 -320
2019-03-17 14:36:32 GMT 44.575378 5.232697 15,100 180 248 -960
2019-03-17 14:36:29 GMT 44.578857 5.232631 15,150 180 247 -1024
2019-03-17 14:36:22 GMT 44.587555 5.232631 15,275 180 247 -960
2019-03-17 14:36:19 GMT 44.590302 5.232631 15,300 180 247 -960
2019-03-17 14:36:11 GMT 44.599457 5.232631 15,450 180 247 -960
2019-03-17 14:36:08 GMT 44.602535 5.232641 15,475 180 248 -1024
2019-03-17 14:36:02 GMT 44.609612 5.232574 15,625 180 248 -1024
2019-03-17 14:35:58 GMT 44.614452 5.232574 15,650 180 248 -1024
2019-03-17 14:35:50 GMT 44.623627 5.232566 15,775 180 248 -1024
2019-03-17 14:35:47 GMT 44.626831 5.232566 15,850 180 248 -960
2019-03-17 14:35:40 GMT 44.634609 5.232574 15,950 180 248 -960
2019-03-17 14:35:37 GMT 44.638058 5.232574 16,000 180 248 -960
2019-03-17 14:35:30 GMT 44.646435 5.232574 16,125 180 248 -1024
2019-03-17 14:35:26 GMT 44.650223 5.232566 16,175 180 247 -960
2019-03-17 14:35:19 GMT 44.658447 5.232507 16,325 180 246 -960
2019-03-17 14:35:15 GMT 44.663818 5.232566 16,375 180 247 -1024
2019-03-17 14:35:09 GMT 44.670181 5.232500 16,625 180 246 -960
2019-03-17 14:35:05 GMT 44.674942 5.232500 16,550 180 245 -960
2019-03-17 14:35:01 GMT 44.682327 5.232507 16,700 180 245 -960
2019-03-17 14:34:53 GMT 44.688240 5.232507 16,725 180 245 -1024
2019-03-17 14:34:49 GMT 44.693298 5.232500 16,800 180 245 -960
2019-03-17 14:34:43 GMT 44.699661 5.232435 16,900 180 245 -960
2019-03-17 14:34:36 GMT 44.707233 5.232440 17,000 179 245 -960
2019-03-17 14:34:32 GMT 44.712215 5.232440 17,100 179 245 -1024
2019-03-17 14:34:28 GMT 44.716869 5.232440 17,225 179 245 -1024
2019-03-17 14:34:25 GMT 44.720173 5.232373 17,200 179 245 -1024
2019-03-17 14:34:22 GMT 44.723557 5.232370 17,250 179 245 -1024
2019-03-17 14:34:18 GMT 44.728554 5.232373 17,325 179 245 -1024
2019-03-17 14:34:15 GMT 44.731842 5.232370 17,375 179 245 -1024
2019-03-17 14:34:11 GMT 44.736374 5.232304 17,450 179 245 -1024
2019-03-17 14:34:07 GMT 44.740494 5.232304 17,500 179 245 -960
2019-03-17 14:34:04 GMT 44.743881 5.232239 17,550 179 245 -960
2019-03-17 14:34:00 GMT 44.747955 5.232173 17,600 179 245 -1024
2019-03-17 14:33:57 GMT 44.751923 5.232105 17,675 179 245 -960
2019-03-17 14:33:54 GMT 44.756149 5.232043 18,700 187 235 -1024
2019-03-17 14:33:50 GMT 44.759949 5.232043 17,775 182 243 -1024
2019-03-17 14:33:46 GMT 44.764023 5.232173 17,850 183 242 -1024
2019-03-17 14:33:42 GMT 44.768692 5.232697 17,900 187 239 -1024
2019-03-17 14:33:35 GMT 44.776199 5.233808 18,025 187 239 -1024
2019-03-17 14:33:32 GMT 44.779247 5.234315 18,075 187 239 -960
2019-03-17 14:33:25 GMT 44.790482 5.236097 18,250 187 239 -960
2019-03-17 14:33:14 GMT 44.803665 5.238124 18,450 187 238 -1024
2019-03-17 14:33:06 GMT 44.813374 5.239675 18,575 187 237 -1024
2019-03-17 14:33:02 GMT 44.813374 5.239675 18,600 187 237 -960
2019-03-17 14:32:54 GMT 44.821793 5.241002 18,725 187 236 -960
2019-03-17 14:32:51 GMT 44.825043 5.241525 18,775 187 235 -1024
2019-03-17 14:32:44 GMT 44.833344 5.242823 18,900 187 234 -960
2019-03-17 14:32:40 GMT 44.836601 5.243359 18,950 187 234 -1024
2019-03-17 14:32:33 GMT 44.844543 5.244598 19,125 187 233 -960
2019-03-17 14:32:30 GMT 44.847218 5.245034 19,125 187 233 -960
2019-03-17 14:32:22 GMT 44.856106 5.246441 19,250 187 232 -960
2019-03-17 14:32:18 GMT 44.859737 5.247044 19,300 187 231 -1024
2019-03-17 14:32:15 GMT 44.864090 5.247737 19,400 187 231 -960
2019-03-17 14:32:12 GMT 44.867615 5.248326 19,425 187 231 -1024
2019-03-17 14:32:09 GMT 44.869720 5.248653 19,475 187 230 -960
2019-03-17 14:32:02 GMT 44.877567 5.249924 19,625 187 229 -960
2019-03-17 14:31:59 GMT 44.880592 5.250393 19,625 187 229 -960
2019-03-17 14:31:56 GMT 44.883682 5.250876 19,675 187 227 -960
2019-03-17 14:31:53 GMT 44.886383 5.251334 19,725 187 228 -960
2019-03-17 14:31:50 GMT 44.889626 5.251800 19,750 187 228 -1024
2019-03-17 14:31:46 GMT 44.893707 5.252446 20,000 187 227 -960
2019-03-17 14:31:43 GMT 44.897400 5.253006 19,900 187 226 -960
2019-03-17 14:31:40 GMT 44.899960 5.253408 19,950 187 226 -832
2019-03-17 14:31:37 GMT 44.902985 5.253876 20,000 187 232 -704
2019-03-17 14:31:33 GMT 44.907780 5.254613 20,000 187 227 -64
2019-03-17 14:31:27 GMT 44.913879 5.255484 20,000 187 230 -192
2019-03-17 14:31:23 GMT 44.918953 5.256288 20,025 187 231 -704
2019-03-17 14:31:20 GMT 44.922256 5.256824 20,075 187 232 -704
2019-03-17 14:31:16 GMT 44.925377 5.257293 20,225 187 232 -704
2019-03-17 14:31:11 GMT 44.930832 5.258135 20,150 187 232 -704
2019-03-17 14:31:06 GMT 44.936272 5.258968 20,225 187 232 -704
2019-03-17 14:31:01 GMT 44.941391 5.259839 20,275 187 232 -704
2019-03-17 14:30:58 GMT 44.945663 5.260489 20,325 187 232 -704
2019-03-17 14:30:55 GMT 44.947678 5.260816 20,350 187 232 -704
2019-03-17 14:30:52 GMT 44.952164 5.261536 20,400 187 231 -704
2019-03-17 14:30:48 GMT 44.955914 5.262116 20,450 187 231 -704
2019-03-17 14:30:44 GMT 44.959499 5.262652 20,475 187 231 -704
2019-03-17 14:30:41 GMT 44.962944 5.263255 20,525 187 231 -704
2019-03-17 14:30:38 GMT 44.967602 5.263992 20,550 187 230 -640
2019-03-17 14:30:34 GMT 44.970154 5.264348 20,575 187 230 -704
2019-03-17 14:30:31 GMT 44.973930 5.264997 20,625 187 229 -704
2019-03-17 14:30:28 GMT 44.977020 5.265459 20,675 187 229 -704
2019-03-17 14:30:25 GMT 44.980179 5.265982 20,700 187 229 -704
2019-03-17 14:30:21 GMT 44.985031 5.266767 20,750 187 227 -704
2019-03-17 14:30:16 GMT 44.989758 5.267475 20,775 187 228 -704
2019-03-17 14:30:13 GMT 44.992264 5.267879 20,825 187 228 -704
2019-03-17 14:30:10 GMT 44.995834 5.268467 20,875 187 227 -704
2019-03-17 14:30:07 GMT 44.998672 5.268925 20,900 187 227 -704
2019-03-17 14:30:03 GMT 45.003021 5.269645 20,950 187 227 -640
2019-03-17 14:30:00 GMT 45.006180 5.270102 20,975 187 226 -704
2019-03-17 14:29:53 GMT 45.012943 5.271227 21,050 187 226 -704
2019-03-17 14:29:50 GMT 45.016983 5.271868 21,100 187 226 -704
2019-03-17 14:29:45 GMT 45.021042 5.272500 21,150 187 225 -704
2019-03-17 14:29:42 GMT 45.024445 5.273045 21,200 187 225 -704
2019-03-17 14:29:39 GMT 45.027969 5.273634 21,300 187 224 -704
2019-03-17 14:29:36 GMT 45.031189 5.274107 21,250 187 224 -704
2019-03-17 14:29:32 GMT 45.037857 5.275203 21,350 187 223 -704
2019-03-17 14:29:26 GMT 45.046551 5.276586 21,425 187 222 -704
2019-03-17 14:29:21 GMT 45.046551 5.276586 21,450 187 222 -704
2019-03-17 14:29:18 GMT 45.049206 5.276988 21,500 187 222 -704
2019-03-17 14:29:15 GMT 45.052277 5.277524 21,500 187 222 -704
2019-03-17 14:29:12 GMT 45.055664 5.278015 21,600 187 222 -704
2019-03-17 14:29:09 GMT 45.059509 5.278669 21,575 187 222 -704
2019-03-17 14:29:04 GMT 45.063313 5.279266 21,625 187 221 -704
2019-03-17 14:29:01 GMT 45.068115 5.279977 21,675 187 221 -704
2019-03-17 14:28:58 GMT 45.069717 5.280239 21,700 187 221 -704
2019-03-17 14:28:55 GMT 45.073273 5.280806 21,750 187 221 -704
2019-03-17 14:28:50 GMT 45.078812 5.281677 21,825 187 221 -704
2019-03-17 14:28:47 GMT 45.080750 5.282004 21,825 187 221 -704
2019-03-17 14:28:44 GMT 45.084305 5.282548 21,875 187 221 -704
2019-03-17 14:28:38 GMT 45.091324 5.283704 21,950 187 221 -704
2019-03-17 14:28:33 GMT 45.095627 5.284358 22,000 187 221 -640
2019-03-17 14:28:27 GMT 45.101715 5.285339 22,050 187 220 -704
2019-03-17 14:28:23 GMT 45.105148 5.285863 22,100 187 220 -704
2019-03-17 14:28:19 GMT 45.109085 5.286516 22,175 187 219 -704
2019-03-17 14:28:16 GMT 45.113205 5.287170 22,175 187 219 -704
2019-03-17 14:28:13 GMT 45.115356 5.287505 22,225 187 219 -704
2019-03-17 14:28:07 GMT 45.121857 5.288544 22,300 187 218 -704
2019-03-17 14:28:03 GMT 45.126575 5.289314 22,350 187 218 -704
2019-03-17 14:28:00 GMT 45.132889 5.290309 22,375 187 218 -704
2019-03-17 14:27:56 GMT 45.132889 5.290309 22,425 187 217 -704
2019-03-17 14:27:53 GMT 45.139797 5.291391 22,475 187 217 -704
2019-03-17 14:27:49 GMT 45.139797 5.291391 22,525 187 217 -640
2019-03-17 14:27:46 GMT 45.143005 5.291879 22,550 187 217 -704
2019-03-17 14:27:43 GMT 45.149990 5.292999 22,575 187 217 -704
2019-03-17 14:27:39 GMT 45.149990 5.292999 22,625 187 217 -704
2019-03-17 14:27:36 GMT 45.152367 5.293400 22,650 187 217 -704
2019-03-17 14:27:33 GMT 45.156876 5.294102 22,700 187 217 -704
2019-03-17 14:27:29 GMT 45.160374 5.294673 22,750 187 217 -704
2019-03-17 14:27:25 GMT 45.163540 5.295142 22,775 187 216 -704
2019-03-17 14:27:22 GMT 45.167633 5.295803 22,875 187 216 -704
2019-03-17 14:27:17 GMT 45.171497 5.296415 22,875 187 216 -704
2019-03-17 14:27:14 GMT 45.173874 5.296817 22,900 187 215 -704
2019-03-17 14:27:11 GMT 45.177429 5.297372 22,950 187 214 -704
2019-03-17 14:27:08 GMT 45.181274 5.298026 22,975 187 214 -704
2019-03-17 14:27:04 GMT 45.183743 5.298425 23,000 187 214 -704
2019-03-17 14:27:01 GMT 45.188072 5.299095 23,075 187 213 -640
2019-03-17 14:26:57 GMT 45.191483 5.299661 23,100 187 212 -704
2019-03-17 14:26:53 GMT 45.195786 5.300315 23,150 187 212 -640
2019-03-17 14:26:49 GMT 45.200176 5.301037 23,200 187 211 -704
2019-03-17 14:26:45 GMT 45.203568 5.301623 23,250 187 210 -704
2019-03-17 14:26:42 GMT 45.205673 5.301950 23,250 187 210 -704
2019-03-17 14:26:36 GMT 45.211670 5.302865 23,350 187 209 -704
2019-03-17 14:26:33 GMT 45.214653 5.303382 23,375 187 209 -704
2019-03-17 14:26:29 GMT 45.218098 5.303918 23,425 187 208 -704
2019-03-17 14:26:26 GMT 45.221832 5.304500 23,450 187 207 -704
2019-03-17 14:26:22 GMT 45.224941 5.304990 23,500 187 206 -704
2019-03-17 14:26:19 GMT 45.227825 5.305392 23,525 186 205 -704
2019-03-17 14:26:14 GMT 45.232452 5.306070 23,600 186 205 -640
2019-03-17 14:26:11 GMT 45.235184 5.306463 23,625 186 203 -704
2019-03-17 14:26:08 GMT 45.238449 5.306920 23,675 186 203 -704
2019-03-17 14:26:05 GMT 45.242119 5.307401 23,700 186 202 -640
2019-03-17 14:26:02 GMT 45.244167 5.307669 23,725 185 201 -704
2019-03-17 14:25:58 GMT 45.247604 5.308031 23,775 185 200 -704
2019-03-17 14:25:53 GMT 45.252365 5.308685 23,825 187 197 -640
2019-03-17 14:25:49 GMT 45.255898 5.309344 23,875 191 194 -704
2019-03-17 14:25:46 GMT 45.258041 5.310059 23,900 193 191 -704
2019-03-17 14:25:43 GMT 45.260971 5.311301 23,950 202 184 -704
2019-03-17 14:25:40 GMT 45.262985 5.312544 23,975 206 181 -704
2019-03-17 14:25:37 GMT 45.265320 5.314178 24,000 208 178 -704
2019-03-17 14:25:33 GMT 45.268936 5.316925 24,075 209 176 -704
2019-03-17 14:25:30 GMT 45.271088 5.318560 24,100 209 176 -704
2019-03-17 14:25:27 GMT 45.272415 5.319606 24,125 209 175 -640
2019-03-17 14:25:22 GMT 45.278801 5.324551 24,225 209 173 -704
2019-03-17 14:25:18 GMT 45.278801 5.324551 24,225 209 172 -704
2019-03-17 14:25:12 GMT 45.283310 5.328042 24,325 209 170 -704
2019-03-17 14:25:08 GMT 45.286251 5.330379 24,350 209 169 -704
2019-03-17 14:25:03 GMT 45.289444 5.332881 24,400 210 166 -704
2019-03-17 14:25:00 GMT 45.290955 5.334058 24,425 209 165 -640
2019-03-17 14:24:57 GMT 45.293198 5.335824 24,600 210 161 -640
2019-03-17 14:24:54 GMT 45.295807 5.337917 24,525 210 162 -640
2019-03-17 14:24:50 GMT 45.298214 5.339824 24,550 210 160 -704
2019-03-17 14:24:47 GMT 45.300171 5.341365 24,575 210 160 -704
2019-03-17 14:24:43 GMT 45.302216 5.342952 24,625 210 158 -640
2019-03-17 14:24:39 GMT 45.305290 5.345385 24,675 210 155 -640
2019-03-17 14:24:35 GMT 45.307114 5.346810 24,700 210 154 -640
2019-03-17 14:24:30 GMT 45.310181 5.349295 24,775 210 152 -704
2019-03-17 14:24:26 GMT 45.313110 5.351584 24,825 210 149 -704
2019-03-17 14:24:23 GMT 45.314438 5.352696 24,850 210 149 -640
2019-03-17 14:24:19 GMT 45.317394 5.354964 24,900 210 146 -640
2019-03-17 14:24:16 GMT 45.321259 5.358046 24,950 210 144 -576
2019-03-17 14:24:13 GMT 45.321259 5.358046 24,975 209 143 -448
2019-03-17 14:24:10 GMT 45.322422 5.358916 25,000 209 142 0
2019-03-17 14:24:07 GMT 45.324875 5.360870 25,000 209 142 0
2019-03-17 14:24:03 GMT 45.328583 5.363748 25,000 209 142 0
2019-03-17 14:24:00 GMT 45.328583 5.363748 25,000 209 142 0
2019-03-17 14:23:54 GMT 45.331779 5.366218 25,000 209 142 0
2019-03-17 14:23:51 GMT 45.333500 5.367558 25,000 209 143 0
2019-03-17 14:23:48 GMT 45.334946 5.368652 25,000 209 143 0
2019-03-17 14:23:45 GMT 45.336685 5.370026 25,000 209 143 0
2019-03-17 14:23:42 GMT 45.339386 5.372118 25,000 209 143 0
2019-03-17 14:23:39 GMT 45.340530 5.373034 25,000 209 143 0
2019-03-17 14:23:35 GMT 45.342346 5.374458 25,000 209 144 0
2019-03-17 14:23:32 GMT 45.344486 5.376066 25,000 209 145 0
2019-03-17 14:23:29 GMT 45.346756 5.377873 25,000 209 145 0
2019-03-17 14:23:23 GMT 45.349686 5.380162 25,000 209 145 0
2019-03-17 14:23:18 GMT 45.355099 5.384373 25,000 209 145 0
2019-03-17 14:23:14 GMT 45.355099 5.384373 25,000 209 145 0
2019-03-17 14:23:11 GMT 45.356873 5.385786 25,000 209 145 0
2019-03-17 14:23:08 GMT 45.358795 5.387224 25,000 210 146 0
2019-03-17 14:23:04 GMT 45.360874 5.388861 25,000 209 147 0
2019-03-17 14:23:01 GMT 45.362827 5.390402 25,000 209 147 0
2019-03-17 14:22:58 GMT 45.365295 5.392277 25,000 209 147 0
2019-03-17 14:22:52 GMT 45.368134 5.394555 25,000 209 148 0
2019-03-17 14:22:44 GMT 45.373394 5.398641 25,000 209 149 0
2019-03-17 14:22:41 GMT 45.377426 5.401808 25,000 209 149 0
2019-03-17 14:22:37 GMT 45.377426 5.401808 25,000 209 150 0
2019-03-17 14:22:33 GMT 45.379349 5.403312 25,000 209 150 0
2019-03-17 14:22:30 GMT 45.382233 5.405535 25,000 209 151 0
2019-03-17 14:22:24 GMT 45.385483 5.408085 25,000 209 151 0
2019-03-17 14:22:21 GMT 45.387177 5.409427 25,000 209 152 0
2019-03-17 14:22:17 GMT 45.389648 5.411355 25,000 209 153 0
2019-03-17 14:22:12 GMT 45.392578 5.413644 25,000 209 153 0
2019-03-17 14:22:08 GMT 45.395050 5.415540 25,000 209 153 0
2019-03-17 14:22:04 GMT 45.398163 5.417960 25,000 209 155 0
2019-03-17 14:22:01 GMT 45.400040 5.419464 25,000 209 155 0
2019-03-17 14:21:57 GMT 45.401825 5.420837 25,000 209 156 0
2019-03-17 14:21:52 GMT 45.405796 5.423897 25,000 209 157 0
2019-03-17 14:21:49 GMT 45.407749 5.425437 25,000 209 158 0
2019-03-17 14:21:43 GMT 45.411118 5.428031 25,000 209 158 0
2019-03-17 14:21:40 GMT 45.413086 5.429535 25,000 209 159 0
2019-03-17 14:21:37 GMT 45.414734 5.430864 25,000 209 159 0
2019-03-17 14:21:33 GMT 45.418224 5.433610 25,000 209 159 0
2019-03-17 14:21:30 GMT 45.419621 5.434682 25,000 209 160 0
2019-03-17 14:21:27 GMT 45.421463 5.436140 25,000 209 160 0
2019-03-17 14:21:24 GMT 45.424046 5.438098 25,000 209 161 0
2019-03-17 14:21:21 GMT 45.425720 5.439438 25,000 209 162 0
2019-03-17 14:21:18 GMT 45.427444 5.440778 25,000 209 162 0
2019-03-17 14:21:14 GMT 45.429771 5.442587 25,000 209 162 0
2019-03-17 14:21:10 GMT 45.432518 5.444730 25,000 209 163 0
2019-03-17 14:21:07 GMT 45.434464 5.446276 25,000 209 163 0
2019-03-17 14:21:04 GMT 45.436287 5.447678 25,000 209 164 0
2019-03-17 14:21:00 GMT 45.439545 5.450200 25,000 209 165 0
2019-03-17 14:20:57 GMT 45.442017 5.452162 25,000 209 165 0
2019-03-17 14:20:52 GMT 45.444016 5.453774 25,000 209 167 0
2019-03-17 14:20:48 GMT 45.446995 5.456052 25,000 209 167 0
2019-03-17 14:20:45 GMT 45.449387 5.457916 25,000 209 167 0
2019-03-17 14:20:42 GMT 45.453930 5.461478 25,000 209 168 0
2019-03-17 14:20:38 GMT 45.453930 5.461478 25,000 209 168 0
2019-03-17 14:20:33 GMT 45.457516 5.464291 25,000 209 170 0
2019-03-17 14:20:28 GMT 45.460682 5.466770 25,000 209 170 0
2019-03-17 14:20:22 GMT 45.465523 5.470588 25,000 209 172 0
2019-03-17 14:20:18 GMT 45.467972 5.472499 25,000 209 173 0
2019-03-17 14:20:14 GMT 45.470783 5.474675 25,000 209 178 0
2019-03-17 14:20:11 GMT 45.472504 5.476031 25,000 210 175 0
2019-03-17 14:20:08 GMT 45.475391 5.478292 25,000 209 175 0
2019-03-17 14:20:05 GMT 45.480186 5.482111 25,000 210 177 0
2019-03-17 14:20:01 GMT 45.480186 5.482111 25,000 209 178 0
2019-03-17 14:19:58 GMT 45.481613 5.483224 25,000 209 178 0
2019-03-17 14:19:55 GMT 45.484360 5.485382 25,000 209 179 0
2019-03-17 14:19:52 GMT 45.486332 5.486934 25,000 209 179 0
2019-03-17 14:19:49 GMT 45.488434 5.488586 25,000 209 180 64
2019-03-17 14:19:46 GMT 45.490707 5.490350 25,000 209 182 0
2019-03-17 14:19:43 GMT 45.493332 5.492379 25,000 209 183 0
2019-03-17 14:19:40 GMT 45.495255 5.493949 25,000 209 187 0
2019-03-17 14:19:37 GMT 45.497498 5.495714 25,000 209 187 0
2019-03-17 14:19:34 GMT 45.499832 5.497518 25,000 209 189 0
2019-03-17 14:19:31 GMT 45.502113 5.499327 25,000 209 188 0
2019-03-17 14:19:28 GMT 45.506332 5.502646 25,000 209 191 0
2019-03-17 14:19:25 GMT 45.509445 5.505066 25,000 209 191 0
2019-03-17 14:19:21 GMT 45.509445 5.505066 25,000 209 193 0
2019-03-17 14:19:18 GMT 45.513062 5.507878 25,000 209 194 0
2019-03-17 14:19:13 GMT 45.515659 5.509912 25,000 209 197 0
2019-03-17 14:19:10 GMT 45.518463 5.512063 25,000 209 197 0
2019-03-17 14:19:07 GMT 45.520966 5.513998 25,000 209 198 0
2019-03-17 14:19:04 GMT 45.527618 5.519191 25,000 209 204 0
2019-03-17 14:18:59 GMT 45.527618 5.519191 25,000 209 204 0
2019-03-17 14:18:56 GMT 45.530510 5.521434 25,000 209 206 0
2019-03-17 14:18:53 GMT 45.532837 5.523242 25,000 209 207 0
2019-03-17 14:18:49 GMT 45.535629 5.525404 25,000 209 209 0
2019-03-17 14:18:45 GMT 45.539703 5.528608 25,000 209 212 0
2019-03-17 14:18:42 GMT 45.541496 5.530075 25,000 210 211 0
2019-03-17 14:18:39 GMT 45.544102 5.532085 25,000 209 213 0
2019-03-17 14:18:36 GMT 45.546570 5.534019 25,000 209 213 0
2019-03-17 14:18:32 GMT 45.550232 5.536908 25,000 209 217 0
2019-03-17 14:18:29 GMT 45.553482 5.539454 25,000 209 217 0
2019-03-17 14:18:25 GMT 45.559929 5.544525 25,000 209 225 0
2019-03-17 14:18:22 GMT 45.559929 5.544525 25,000 209 220 0
2019-03-17 14:18:19 GMT 45.563049 5.546928 25,000 209 222 0
2019-03-17 14:18:15 GMT 45.565475 5.548833 25,000 209 222 0
2019-03-17 14:18:12 GMT 45.568264 5.551048 25,000 209 225 0
2019-03-17 14:18:06 GMT 45.577576 5.558395 25,000 209 226 0
2019-03-17 14:18:02 GMT 45.577576 5.558395 25,000 209 226 0
2019-03-17 14:17:58 GMT 45.580505 5.560661 25,000 209 227 0
2019-03-17 14:17:55 GMT 45.587814 5.566384 25,000 209 228 0
2019-03-17 14:17:51 GMT 45.587814 5.566384 25,000 209 228 0
2019-03-17 14:17:48 GMT 45.590515 5.568558 25,000 209 230 0
2019-03-17 14:17:45 GMT 45.593307 5.570755 25,000 209 230 0
2019-03-17 14:17:40 GMT 45.597153 5.573753 25,000 209 231 0
2019-03-17 14:17:35 GMT 45.604435 5.579475 25,000 209 234 0
2019-03-17 14:17:30 GMT 45.606716 5.581261 25,000 209 235 0
2019-03-17 14:17:26 GMT 45.614956 5.587715 25,000 209 237 0
2019-03-17 14:17:23 GMT 45.614956 5.587715 25,000 209 239 0
2019-03-17 14:17:20 GMT 45.616676 5.589088 25,000 209 239 0
2019-03-17 14:17:15 GMT 45.622238 5.593448 25,000 209 242 0
2019-03-17 14:17:10 GMT 45.626827 5.597054 25,000 209 243 0
2019-03-17 14:17:06 GMT 45.631485 5.600683 25,000 209 245 0
2019-03-17 14:17:03 GMT 45.632877 5.601791 25,000 209 246 64
2019-03-17 14:16:59 GMT 45.637253 5.605238 25,000 209 246 64
2019-03-17 14:16:53 GMT 45.643890 5.610463 25,000 209 248 0
2019-03-17 14:16:48 GMT 45.648659 5.614151 25,000 209 251 0
2019-03-17 14:16:43 GMT 45.653034 5.617653 25,000 209 254 0
2019-03-17 14:16:38 GMT 45.659042 5.622320 25,000 209 256 0
2019-03-17 14:16:33 GMT 45.663895 5.626005 25,000 209 259 0
2019-03-17 14:16:28 GMT 45.669846 5.630627 25,000 209 262 0
2019-03-17 14:16:23 GMT 45.674515 5.634245 25,000 209 261 64
2019-03-17 14:16:19 GMT 45.679291 5.637978 25,000 209 261 64
2019-03-17 14:16:16 GMT 45.682690 5.640656 25,000 209 260 0
2019-03-17 14:16:13 GMT 45.684677 5.642216 25,000 209 260 0
2019-03-17 14:16:09 GMT 45.689209 5.645767 25,000 209 259 0
2019-03-17 14:16:06 GMT 45.692459 5.648312 25,000 209 258 0
2019-03-17 14:16:01 GMT 45.697586 5.652328 25,000 209 256 0
2019-03-17 14:15:58 GMT 45.701523 5.655480 25,000 209 256 0
2019-03-17 14:15:54 GMT 45.705780 5.658763 25,000 209 254 64
2019-03-17 14:15:48 GMT 45.711456 5.663246 25,000 209 253 0
2019-03-17 14:15:44 GMT 45.718067 5.668396 25,000 209 251 -64
2019-03-17 14:15:41 GMT 45.722164 5.671623 25,000 209 251 0
2019-03-17 14:15:37 GMT 45.722164 5.671623 25,000 209 248 0
2019-03-17 14:15:34 GMT 45.725983 5.674644 25,000 209 247 0
2019-03-17 14:15:30 GMT 45.729660 5.677528 25,000 210 239 0
2019-03-17 14:15:27 GMT 45.732780 5.679932 25,000 210 196 1344
2019-03-17 14:15:23 GMT 45.736923 5.683228 25,000 209 243 0
2019-03-17 14:15:20 GMT 45.739059 5.684956 25,000 209 242 0
2019-03-17 14:15:17 GMT 45.742832 5.687965 25,000 210 239 0
2019-03-17 14:15:13 GMT 45.746418 5.690781 25,000 210 236 -64
2019-03-17 14:15:10 GMT 45.749256 5.693047 25,000 210 229 0
2019-03-17 14:15:07 GMT 45.752563 5.695674 25,000 210 231 0
2019-03-17 14:15:02 GMT 45.756847 5.699089 25,000 210 228 0
2019-03-17 14:14:59 GMT 45.759129 5.700943 25,000 210 225 0
2019-03-17 14:14:56 GMT 45.762222 5.703445 25,000 210 223 0
2019-03-17 14:14:53 GMT 45.765270 5.705887 25,000 210 219 -64
2019-03-17 14:14:49 GMT 45.768860 5.708804 25,000 210 209 256
2019-03-17 14:14:45 GMT 45.771557 5.710968 25,000 210 213 64
2019-03-17 14:14:40 GMT 45.775818 5.714364 25,000 210 208 384
2019-03-17 14:14:36 GMT 45.780075 5.717781 24,950 210 205 1152
2019-03-17 14:14:33 GMT 45.782635 5.719826 24,775 210 201 2048
2019-03-17 14:14:30 GMT 45.783939 5.720856 24,850 209 202 1792
2019-03-17 14:14:27 GMT 45.787628 5.723743 24,700 210 201 2048
2019-03-17 14:14:24 GMT 45.789413 5.725217 24,625 210 201 2048
2019-03-17 14:14:20 GMT 45.792599 5.727722 24,500 209 202 1984
2019-03-17 14:14:17 GMT 45.794632 5.729303 24,225 209 202 1728
2019-03-17 14:14:12 GMT 45.799023 5.732872 24,250 210 201 1472
2019-03-17 14:14:05 GMT 45.805355 5.737885 24,075 210 199 1344
2019-03-17 14:14:00 GMT 45.809326 5.741093 24,000 210 197 1536
2019-03-17 14:13:54 GMT 45.817429 5.747457 23,650 210 195 1728
2019-03-17 14:13:49 GMT 45.817429 5.747457 23,725 210 195 1728
2019-03-17 14:13:44 GMT 45.822006 5.751142 23,500 210 195 1664
2019-03-17 14:13:41 GMT 45.824707 5.753285 23,400 210 195 1664
2019-03-17 14:13:34 GMT 45.832169 5.759181 23,225 210 196 1216
2019-03-17 14:13:28 GMT 45.833496 5.760252 23,175 210 195 1408
2019-03-17 14:13:25 GMT 45.836426 5.762597 23,050 210 194 1728
2019-03-17 14:13:22 GMT 45.838871 5.764526 22,950 209 194 1856
2019-03-17 14:13:18 GMT 45.841599 5.766683 22,850 209 194 1792
2019-03-17 14:13:13 GMT 45.845718 5.769966 22,625 210 195 1536
2019-03-17 14:13:10 GMT 45.848694 5.772311 22,575 210 195 1344
2019-03-17 14:13:07 GMT 45.850697 5.773933 22,525 210 195 1280
2019-03-17 14:13:02 GMT 45.854553 5.777000 22,375 209 195 1472
2019-03-17 14:12:58 GMT 45.860001 5.781287 22,250 209 195 1600
2019-03-17 14:12:51 GMT 45.863171 5.783752 22,150 209 195 1536
2019-03-17 14:12:46 GMT 45.867188 5.786914 22,000 209 195 1792
2019-03-17 14:12:41 GMT 45.871307 5.790197 21,850 210 195 1408
2019-03-17 14:12:38 GMT 45.875507 5.793503 21,750 209 195 1088
2019-03-17 14:12:32 GMT 45.878586 5.795891 21,675 209 192 1472
2019-03-17 14:12:27 GMT 45.882259 5.798790 21,550 209 192 1472
2019-03-17 14:12:24 GMT 45.884258 5.800369 21,500 209 191 1600
2019-03-17 14:12:21 GMT 45.886585 5.802223 21,425 209 191 1792
2019-03-17 14:12:18 GMT 45.889938 5.804868 21,250 209 192 1792
2019-03-17 14:12:14 GMT 45.892136 5.806542 21,200 209 192 1856
2019-03-17 14:12:10 GMT 45.895012 5.808815 21,100 209 192 1792
2019-03-17 14:12:06 GMT 45.898178 5.811299 21,000 209 193 1600
2019-03-17 14:12:03 GMT 45.900692 5.813278 20,900 209 192 1856
2019-03-17 14:12:00 GMT 45.902802 5.814983 20,725 209 192 1856
2019-03-17 14:11:56 GMT 45.906464 5.817879 20,725 210 193 1792
2019-03-17 14:11:50 GMT 45.911167 5.821587 20,425 209 194 1152
2019-03-17 14:11:46 GMT 45.914333 5.824059 20,375 209 194 1088
2019-03-17 14:11:40 GMT 45.919315 5.828041 20,250 209 192 1280
2019-03-17 14:11:36 GMT 45.922714 5.830793 20,175 209 190 1408
2019-03-17 14:11:32 GMT 45.925133 5.832642 20,050 210 188 1024
2019-03-17 14:11:28 GMT 45.928719 5.835526 20,050 210 188 1024
2019-03-17 14:11:25 GMT 45.930252 5.836693 19,900 209 190 1920
2019-03-17 14:11:18 GMT 45.935760 5.841042 19,700 209 191 2048
2019-03-17 14:11:14 GMT 45.938633 5.843285 19,550 209 192 1536
2019-03-17 14:11:08 GMT 45.943726 5.847339 19,400 209 194 832
2019-03-17 14:11:04 GMT 45.946243 5.849349 19,350 210 193 896
2019-03-17 14:11:00 GMT 45.950684 5.852832 19,250 209 190 1216
2019-03-17 14:10:54 GMT 45.954208 5.855646 19,150 209 189 1408
2019-03-17 14:10:47 GMT 45.959396 5.859695 18,975 209 187 2048
2019-03-17 14:10:44 GMT 45.962143 5.861893 18,850 209 188 1984
2019-03-17 14:10:38 GMT 45.966934 5.865694 18,625 209 189 2112
2019-03-17 14:10:34 GMT 45.970474 5.868416 18,475 209 189 1984
2019-03-17 14:10:29 GMT 45.973919 5.871162 18,325 210 185 1024
2019-03-17 14:10:26 GMT 45.975456 5.872398 18,225 209 189 1344
2019-03-17 14:10:23 GMT 45.978149 5.874537 18,175 210 188 1024
2019-03-17 14:10:17 GMT 45.982819 5.878288 18,050 210 183 1344
2019-03-17 14:10:13 GMT 45.986443 5.881187 17,975 209 181 1856
2019-03-17 14:10:09 GMT 45.989841 5.883797 17,800 209 180 2304
2019-03-17 14:10:06 GMT 45.991283 5.884964 17,750 209 180 2496
2019-03-17 14:10:02 GMT 45.993805 5.886930 17,600 209 180 2560
2019-03-17 14:09:58 GMT 45.997334 5.889702 17,400 209 182 1984
2019-03-17 14:09:52 GMT 46.000919 5.892517 17,225 209 182 1472
2019-03-17 14:09:49 GMT 46.003666 5.894646 17,150 209 183 1344
2019-03-17 14:09:45 GMT 46.006226 5.896706 17,075 209 183 1472
2019-03-17 14:09:42 GMT 46.009346 5.899178 17,025 209 182 1472
2019-03-17 14:09:39 GMT 46.013954 5.902748 16,875 209 182 1472
2019-03-17 14:09:35 GMT 46.013954 5.902748 16,775 209 182 1472
2019-03-17 14:09:31 GMT 46.017334 5.905419 16,700 209 181 1600
2019-03-17 14:09:28 GMT 46.019260 5.906937 16,700 209 181 1600
2019-03-17 14:09:24 GMT 46.021820 5.908903 16,450 209 178 1664
2019-03-17 14:09:20 GMT 46.024796 5.911247 16,425 209 178 1664
2019-03-17 14:09:17 GMT 46.027359 5.913190 16,325 209 177 1664
2019-03-17 14:09:14 GMT 46.030014 5.915314 16,225 209 176 1792
2019-03-17 14:09:10 GMT 46.033585 5.918080 16,100 209 174 1536
2019-03-17 14:09:07 GMT 46.035137 5.919296 16,025 209 173 1344
2019-03-17 14:09:03 GMT 46.036880 5.920693 15,975 210 171 1216
2019-03-17 14:09:00 GMT 46.038757 5.922167 15,925 210 170 1088
2019-03-17 14:08:56 GMT 46.042118 5.924927 15,750 210 164 1088
2019-03-17 14:08:50 GMT 46.045303 5.927526 15,725 211 161 1088
2019-03-17 14:08:46 GMT 46.048370 5.930139 15,625 211 157 1472
2019-03-17 14:08:42 GMT 46.050777 5.932274 15,525 211 153 1664
2019-03-17 14:08:39 GMT 46.052216 5.933421 15,450 209 153 1664
2019-03-17 14:08:36 GMT 46.054783 5.935158 15,300 200 154 2240
2019-03-17 14:08:32 GMT 46.060272 5.937239 15,050 191 157 2368
2019-03-17 14:08:28 GMT 46.060272 5.937239 15,025 184 161 2176
2019-03-17 14:08:24 GMT 46.063721 5.937424 14,875 177 165 1984
2019-03-17 14:08:21 GMT 46.065254 5.937218 14,800 176 166 1984
2019-03-17 14:08:18 GMT 46.068047 5.936737 14,700 172 168 1536
2019-03-17 14:08:10 GMT 46.073635 5.935638 14,475 172 164 1344
2019-03-17 14:08:07 GMT 46.075962 5.935158 14,425 172 162 1280
2019-03-17 14:08:04 GMT 46.078987 5.934608 14,350 172 159 1280
2019-03-17 14:08:01 GMT 46.080803 5.934265 14,275 172 153 2432
2019-03-17 14:07:58 GMT 46.083664 5.933689 14,150 172 153 2432
2019-03-17 14:07:53 GMT 46.085587 5.933287 14,050 171 155 2368
2019-03-17 14:07:50 GMT 46.088623 5.932686 13,825 171 153 2816
2019-03-17 14:07:47 GMT 46.090805 5.932215 13,700 171 155 2432
2019-03-17 14:07:42 GMT 46.093792 5.931587 13,525 171 155 2624
2019-03-17 14:07:39 GMT 46.095932 5.931175 13,400 171 156 2432
2019-03-17 14:07:35 GMT 46.098961 5.930489 13,225 171 157 2112
2019-03-17 14:07:31 GMT 46.102112 5.929804 13,075 170 157 1856
2019-03-17 14:07:27 GMT 46.104675 5.929201 12,950 171 154 2176
2019-03-17 14:07:23 GMT 46.107239 5.928732 12,850 173 152 2304
2019-03-17 14:07:18 GMT 46.111359 5.928732 12,600 187 147 2432
2019-03-17 14:07:15 GMT 46.113625 5.929253 12,450 199 146 1856
2019-03-17 14:07:09 GMT 46.117348 5.931175 12,275 206 144 1920
2019-03-17 14:07:06 GMT 46.118511 5.931931 12,200 209 143 1984
2019-03-17 14:07:03 GMT 46.119965 5.933153 12,100 215 140 2432
2019-03-17 14:06:59 GMT 46.122665 5.935967 11,875 223 140 2880
2019-03-17 14:06:56 GMT 46.123772 5.937355 11,725 227 140 2944
2019-03-17 14:06:52 GMT 46.125366 5.939718 11,625 228 142 2816
2019-03-17 14:06:48 GMT 46.127884 5.943671 11,375 227 145 2688
2019-03-17 14:06:45 GMT 46.129349 5.945948 11,225 227 147 2880
2019-03-17 14:06:42 GMT 46.130081 5.947020 11,150 227 147 2880
2019-03-17 14:06:36 GMT 46.133175 5.951775 10,900 228 149 2560
2019-03-17 14:06:33 GMT 46.134521 5.953853 10,725 227 150 2048
2019-03-17 14:06:27 GMT 46.137360 5.958274 10,525 227 147 2496
2019-03-17 14:06:23 GMT 46.139275 5.961182 10,250 227 147 2816
2019-03-17 14:06:16 GMT 46.142303 5.965710 10,025 228 145 3072
2019-03-17 14:06:13 GMT 46.143723 5.967921 9,825 227 147 3008
2019-03-17 14:06:06 GMT 46.148438 5.975156 9,500 228 147 2880
2019-03-17 14:06:00 GMT 46.149841 5.977455 9,225 230 149 2752
2019-03-17 14:05:57 GMT 46.151642 5.980515 8,975 230 151 2880
2019-03-17 14:05:54 GMT 46.152328 5.981587 8,975 230 151 2880
2019-03-17 14:05:50 GMT 46.154495 5.985214 8,875 230 151 2816
2019-03-17 14:05:45 GMT 46.156952 5.989291 8,575 229 153 2816
2019-03-17 14:05:42 GMT 46.158127 5.991188 8,425 229 155 2496
2019-03-17 14:05:39 GMT 46.159615 5.993523 8,275 228 157 2304
2019-03-17 14:05:34 GMT 46.162270 5.997711 8,025 227 157 2176
2019-03-17 14:05:31 GMT 46.163246 5.999222 8,075 227 157 2176
2019-03-17 14:05:24 GMT 46.167065 6.004921 7,675 227 157 1856
2019-03-17 14:05:21 GMT 46.168442 6.006976 7,625 227 155 1728
2019-03-17 14:05:15 GMT 46.171581 6.011581 7,425 226 150 2112
2019-03-17 14:05:12 GMT 46.172836 6.013435 7,275 226 146 2688
2019-03-17 14:05:09 GMT 46.174652 6.016113 7,200 226 144 2944
2019-03-17 14:05:04 GMT 46.176609 6.018929 6,900 226 144 3968
2019-03-17 14:05:01 GMT 46.177864 6.020782 6,825 226 144 4032
2019-03-17 14:04:57 GMT 46.179771 6.023529 6,675 225 147 3840
2019-03-17 14:04:54 GMT 46.181396 6.025867 6,275 226 152 2752
2019-03-17 14:04:51 GMT 46.183090 6.028346 6,225 225 154 2368
2019-03-17 14:04:47 GMT 46.184784 6.030824 6,075 225 152 1856
2019-03-17 14:04:41 GMT 46.187714 6.035112 5,875 226 147 2624
2019-03-17 14:04:38 GMT 46.189774 6.038126 5,650 226 143 3264
2019-03-17 14:04:34 GMT 46.191284 6.040270 5,475 225 144 2880
2019-03-17 14:04:30 GMT 46.193134 6.042892 5,275 225 144 2944
2019-03-17 14:04:27 GMT 46.194626 6.045090 5,100 225 145 2752
2019-03-17 14:04:23 GMT 46.198105 6.049983 4,800 224 145 2432
2019-03-17 14:04:19 GMT 46.198105 6.049983 4,800 224 144 2304
2019-03-17 14:04:16 GMT 46.199558 6.051956 4,675 224 142 2432
2019-03-17 14:04:11 GMT 46.201981 6.055321 4,350 225 139 2688
2019-03-17 14:04:07 GMT 46.204262 6.058617 4,225 226 137 2944
2019-03-17 14:04:01 GMT 46.206821 6.062462 3,950 227 137 3136
2019-03-17 14:03:56 GMT 46.208961 6.065689 3,675 227 137 2944
2019-03-17 14:03:46 GMT 46.213615 6.072762 3,125 226 140 3264
2019-03-17 14:03:35 GMT 46.218319 6.079765 2,625 228 142 2624
2019-03-17 14:03:25 GMT 46.222790 6.086769 2,150 227 140 3072
2019-03-17 14:03:16 GMT 46.226978 6.092880 1,700 225 138 1728
2019-03-17 14:03:05 GMT 46.231728 6.099747 1,475 225 128 832
2019-03-17 14:02:55 GMT 46.235462 6.105137 0 225 92
2019-03-17 14:02:44 GMT 46.237858 6.108639 0 225 37
2019-03-17 14:02:33 GMT 46.238544 6.109514 0 182 9
2019-03-17 14:02:22 GMT 46.238918 6.109205 0 135 11
2019-03-17 14:02:12 GMT 46.239292 6.108733 0 157 9
2019-03-17 14:01:59 GMT 46.239536 6.108742 0 171 0
2019-03-17 14:01:30 GMT 46.239594 6.108725 0 165 0
2019-03-17 14:01:20 GMT 46.239590 6.108733 0 165 0
2019-03-17 14:00:15 GMT 46.239594 6.108725 0 165 0
2019-03-17 14:00:04 GMT 46.239590 6.108733 0 165 0
2019-03-17 13:59:44 GMT 46.239582 6.108725 0 165 0
2019-03-17 13:59:29 GMT 46.239578 6.108733 0 165 0
2019-03-17 13:59:10 GMT 46.239582 6.108742 0 165 0
2019-03-17 13:58:39 GMT 46.239578 6.108733 0 165 0
2019-03-17 13:58:24 GMT 46.239582 6.108725 0 165 0
2019-03-17 13:58:19 GMT 46.239578 6.108733 0 165 0
2019-03-17 13:58:09 GMT 46.239582 6.108725 0 165 0
2019-03-17 13:57:59 GMT 46.239578 6.108717 0 165 0
2019-03-17 13:57:50 GMT 46.239578 6.108733 0 165 0
2019-03-17 13:57:35 GMT 46.239582 6.108725 0 165 0
2019-03-17 13:57:25 GMT 46.239578 6.108733 0 165 0
2019-03-17 13:57:10 GMT 46.239582 6.108725 0 165 0
2019-03-17 13:56:45 GMT 46.239578 6.108733 0 165 0
2019-03-17 13:56:24 GMT 46.239582 6.108725 0 165 0
2019-03-17 13:56:04 GMT 46.239578 6.108733 0 165 0
2019-03-17 13:55:49 GMT 46.239582 6.108725 0 165 0
2019-03-17 13:55:29 GMT 46.239578 6.108733 0 165 0
2019-03-17 13:55:20 GMT 46.239582 6.108725 0 165 0
2019-03-17 13:54:59 GMT 46.239578 6.108733 0 165 0
2019-03-17 13:54:29 GMT 46.239582 6.108725 0 165 0
2019-03-17 13:53:55 GMT 46.239582 6.108742 0 165 0
2019-03-17 13:53:15 GMT 46.239594 6.108742 0 165 0
2019-03-17 13:52:10 GMT 46.239590 6.108733 0 165 0
2019-03-17 13:52:00 GMT 46.239582 6.108725 0 165 0
2019-03-17 13:51:40 GMT 46.239590 6.108733 0 165 0
2019-03-17 13:51:20 GMT 46.239594 6.108725 0 165 0
2019-03-17 13:51:00 GMT 46.239590 6.108733 0 165 0
2019-03-17 13:50:50 GMT 46.239594 6.108725 0 165 0
2019-03-17 13:50:28 GMT 46.239590 6.108733 0 165 0
2019-03-17 13:50:18 GMT 46.239594 6.108725 0 165 0
2019-03-17 13:50:07 GMT 46.239590 6.108733 0 165 0
2019-03-17 13:49:56 GMT 46.239761 6.108566 0 135 8
2019-03-17 13:49:46 GMT 46.239990 6.108164 0 90 8
2019-03-17 13:49:35 GMT 46.239979 6.107745 0 120 5
2019-03-17 13:49:24 GMT 46.240280 6.107300 0 135 9
2019-03-17 13:49:14 GMT 46.240425 6.106908 0 61 7
2019-03-17 13:49:03 GMT 46.240173 6.106493 0 45 10
2019-03-17 13:48:53 GMT 46.239864 6.106037 0 45 10
2019-03-17 13:48:42 GMT 46.239487 6.105484 0 45 10
2019-03-17 13:48:31 GMT 46.239162 6.105017 0 45 10
2019-03-17 13:48:21 GMT 46.238850 6.104553 0 45 14
2019-03-17 13:48:10 GMT 46.238335 6.103798 0 45 16
2019-03-17 13:48:00 GMT 46.237816 6.103023 0 45 16
2019-03-17 13:47:50 GMT 46.237312 6.102286 0 45 14
2019-03-17 13:47:39 GMT 46.236889 6.101666 0 45 9
2019-03-17 13:47:28 GMT 46.236923 6.101231 0 129 8
2019-03-17 13:47:19 GMT 46.237026 6.100879 0 67 6
2019-03-17 13:45:49 GMT 46.237068 6.100485 0 135 0
2019-03-17 13:45:34 GMT 46.237072 6.100494 0 135 0
2019-03-17 13:44:54 GMT 46.237068 6.100485 0 135 0
2019-03-17 13:44:49 GMT 46.237072 6.100494 0 135 0
2019-03-17 13:44:19 GMT 46.237068 6.100485 0 135 0
2019-03-17 13:44:09 GMT 46.237061 6.100477 0 135 0
2019-03-17 13:43:49 GMT 46.237068 6.100485 0 135 0
2019-03-17 13:43:39 GMT 46.237061 6.100494 0 135 0
2019-03-17 13:43:00 GMT 46.237061 6.100477 0 135 0
2019-03-17 13:42:50 GMT 46.237057 6.100485 0 135 0
2019-03-17 13:42:35 GMT 46.237068 6.100485 0 135 0
2019-03-17 13:42:25 GMT 46.237061 6.100477 0 135 0
2019-03-17 13:42:15 GMT 46.237068 6.100485 0 135 0
2019-03-17 13:42:00 GMT 46.237057 6.100485 0 135 0

Making use of Plane Finder data

You are free to use the raw flight data, aircraft information and images provided in this report for your own purposes provided the data is correctly attributed to Plane Finder. We ask that you please credit Plane Finder and link to planefinder.net in close proximity to the content.

Optionally one of the following logos (no smaller then 150x24px) can be used and must link to planefinder.net

Embedding the Plane Finder map

You are welcome to embed the Plane Finder playback map on your website to offer visitors a more interactive experience. We suggest using the following HTML code:

<iframe src="//planefinder.net/data/report/GAC903L-OE-FZA-7700-squawk-2019-03-17/map" width="800" height="600" seamless="seamless"></iframe>

Where our data comes from

Plane Finder has a global network of data feeds and antenna radars that receive data broadcast directly from aircraft. The primary technologies used are ADS-B and MLAT. We also show feeds from the FAA and a FLARM glider feed.

Click here to find out more about the Plane Finder network.

How we collect our data